Trine Charlotte — LMRY — position and weather

sailwx.info

Track history (hours):
 
Tides and Currents Weather Stations Pressure Air Temp Water Temp Dewpoint Dewpoint Depression Visibility Wind Speed Wind Dir Waves Ship Positions

Trine Charlotte

Last reported at 2014-Nov-27 11:33 UTC. Time now 2014-Nov-27 11:50 UTC.
Position N 69°40' E 018°58'.

Length 66 m; draft 4.6 m.

Type: Wing in ground effect craft. MMSI: 257233000.

Date/timePositionNaut miles runAvg speedWind from/ knotsBaromVisibWave heightAir tempDewpointWater temp
2014-Nov-27 11:33N 69°40' E 018°58'0 0.0
2014-Nov-27 10:33N 69°40' E 018°58'0 0.0
2014-Nov-27 09:33N 69°40' E 018°58'0 0.0
2014-Nov-27 08:33N 69°40' E 018°58'0 0.0
2014-Nov-27 07:33N 69°40' E 018°58'3 0.2
2014-Nov-26 17:13N 69°42' E 019°01'5 7.8
2014-Nov-26 16:33N 69°37' E 018°55'  
2014-Nov-24 09:20N 67°44' E 014°31'27 9.7
2014-Nov-24 06:33N 67°29' E 015°30'7 7.2
2014-Nov-24 05:33N 67°22' E 015°35'0 0.0
2014-Nov-24 04:33N 67°22' E 015°35'0 0.0
2014-Nov-24 03:34N 67°22' E 015°35'0 0.0
2014-Nov-24 02:33N 67°22' E 015°35'0 0.0
2014-Nov-24 01:33N 67°22' E 015°35'0 0.0
2014-Nov-24 00:33N 67°22' E 015°35'0 0.0
2014-Nov-23 23:33N 67°22' E 015°35'0 0.0
2014-Nov-23 22:33N 67°22' E 015°35'0 0.1
2014-Nov-23 21:33N 67°22' E 015°35'2 2.1
2014-Nov-23 20:33N 67°24' E 015°34'5 4.9
2014-Nov-23 19:33N 67°29' E 015°30'8 6.9
2014-Nov-23 18:26N 67°33' E 015°13'17 7.5
2014-Nov-23 16:11N 67°40' E 014°32'150 5.2
2014-Nov-22 11:30N 69°36' E 018°53'9 9.8
2014-Nov-22 10:33N 69°44' E 019°06'  
2014-Nov-18 05:33N 69°40' E 018°58'0 0.1
2014-Nov-18 04:33N 69°40' E 018°58'0 0.0
2014-Nov-18 03:33N 69°40' E 018°58'0 0.0
2014-Nov-18 02:33N 69°40' E 018°58'0 0.0
2014-Nov-18 01:33N 69°40' E 018°58'0 0.0
2014-Nov-18 00:33N 69°40' E 018°58'0 0.0
2014-Nov-17 23:33N 69°40' E 018°58'0 0.0
2014-Nov-17 22:33N 69°40' E 018°58'0 0.0
2014-Nov-17 21:33N 69°40' E 018°58'3 2.8
2014-Nov-17 20:33N 69°37' E 018°55'  
Track history (hours):
 
Tides and Currents Weather Stations Pressure Air Temp Water Temp Dewpoint Dewpoint Depression Visibility Wind Speed Wind Dir Waves Ship Positions

Trine Charlotte

Last reported at 2014-Nov-27 11:33 UTC. Time now 2014-Nov-27 11:50 UTC.
Position N 69°40' E 018°58'.

Length 66 m; draft 4.6 m.

Type: Wing in ground effect craft. MMSI: 257233000.

Date/timePositionNaut miles runAvg speedWind from/ knotsBaromVisibWave heightAir tempDewpointWater temp
2014-Nov-27 11:33N 69°40' E 018°58'0 0.0
2014-Nov-27 10:33N 69°40' E 018°58'0 0.0
2014-Nov-27 09:33N 69°40' E 018°58'0 0.0
2014-Nov-27 08:33N 69°40' E 018°58'0 0.0
2014-Nov-27 07:33N 69°40' E 018°58'3 0.2
2014-Nov-26 17:13N 69°42' E 019°01'5 7.8
2014-Nov-26 16:33N 69°37' E 018°55'  
2014-Nov-24 09:20N 67°44' E 014°31'27 9.7
2014-Nov-24 06:33N 67°29' E 015°30'7 7.2
2014-Nov-24 05:33N 67°22' E 015°35'0 0.0
2014-Nov-24 04:33N 67°22' E 015°35'0 0.0
2014-Nov-24 03:34N 67°22' E 015°35'0 0.0
2014-Nov-24 02:33N 67°22' E 015°35'0 0.0
2014-Nov-24 01:33N 67°22' E 015°35'0 0.0
2014-Nov-24 00:33N 67°22' E 015°35'0 0.0
2014-Nov-23 23:33N 67°22' E 015°35'0 0.0
2014-Nov-23 22:33N 67°22' E 015°35'0 0.1
2014-Nov-23 21:33N 67°22' E 015°35'2 2.1
2014-Nov-23 20:33N 67°24' E 015°34'5 4.9
2014-Nov-23 19:33N 67°29' E 015°30'8 6.9
2014-Nov-23 18:26N 67°33' E 015°13'17 7.5
2014-Nov-23 16:11N 67°40' E 014°32'150 5.2
2014-Nov-22 11:30N 69°36' E 018°53'9 9.8
2014-Nov-22 10:33N 69°44' E 019°06'  
2014-Nov-18 05:33N 69°40' E 018°58'0 0.1
2014-Nov-18 04:33N 69°40' E 018°58'0 0.0
2014-Nov-18 03:33N 69°40' E 018°58'0 0.0
2014-Nov-18 02:33N 69°40' E 018°58'0 0.0
2014-Nov-18 01:33N 69°40' E 018°58'0 0.0
2014-Nov-18 00:33N 69°40' E 018°58'0 0.0
2014-Nov-17 23:33N 69°40' E 018°58'0 0.0
2014-Nov-17 22:33N 69°40' E 018°58'0 0.0
2014-Nov-17 21:33N 69°40' E 018°58'3 2.8
2014-Nov-17 20:33N 69°37' E 018°55'  

Dump ship's entire track history